Vintondale, Pennsylvania
Current Conditions -  °F | °C
As of 1:54 AM on Sunday 23 Nov 2014 (Local Time) from KJST Reporting Station
Overcast Overcast  
Wind Chill: 42°   Ceiling: 5000
Heat Index: 47°   Visibility: 10mi
Dew Point: 24°   Wind: 12mph
Humidity: 41%   Direction: 220°SW
Pressure: 30.11"   Gusts: NA
Location:  40.48°N, 78.92°W
Report Text: KJST 230654Z AUTO 22010KT 10SM OVC050 08/M04 A3011 RMK AO2 SLP208 T00831044
Loading
Personal Weather Stations






























Interactive Weather Map New forecast layout! Learn more

10-Day Weather Forecast

Advertisements
Track Severe Weather on mobile